Time;durP1;ratioP1;P1;durP2;ratioP2;P2;SDS_P1;SDS_P2;PMS_P1;PMS_P2;Temp;Humidity;BMP_temperature;BMP_pressure;BME280_temperature;BME280_humidity;BME280_pressure;Samples;Min_cycle;Max_cycle;Signal;HPM_P1;HPM_P2
2022/04/03 00:02:25;;;;;;;4.67;2.20;;;1.00;99.90;;;;;;5072972;28;20203;-76
2022/04/03 00:04:50;;;;;;;4.63;2.10;;;1.00;99.90;;;;;;5072868;28;20228;-76
2022/04/03 00:07:15;;;;;;;4.70;2.57;;;1.00;99.90;;;;;;5072854;28;20277;-77
2022/04/03 00:09:41;;;;;;;6.50;2.43;;;1.10;99.90;;;;;;5071638;28;20664;-77
2022/04/03 00:12:07;;;;;;;6.90;2.90;;;1.10;99.90;;;;;;5071742;28;20163;-77
2022/04/03 00:14:32;;;;;;;9.80;3.10;;;1.10;99.90;;;;;;5072674;28;20215;-77
2022/04/03 00:16:57;;;;;;;4.40;2.63;;;1.20;99.90;;;;;;5072539;28;20223;-75
2022/04/03 00:19:23;;;;;;;4.57;2.43;;;1.10;99.90;;;;;;5063256;28;20212;-76
2022/04/03 00:21:49;;;;;;;4.63;2.67;;;1.10;99.90;;;;;;5072273;28;20186;-77
2022/04/03 00:24:15;;;;;;;5.63;2.60;;;1.10;99.90;;;;;;5072590;28;20636;-77
2022/04/03 00:26:40;;;;;;;5.50;2.93;;;1.10;99.90;;;;;;5072045;28;20224;-77
2022/04/03 00:29:06;;;;;;;4.77;2.43;;;1.10;99.90;;;;;;5071403;28;20241;-77
2022/04/03 00:31:31;;;;;;;2.83;2.00;;;1.10;99.90;;;;;;5072191;28;20211;-78
2022/04/03 00:33:57;;;;;;;4.80;2.50;;;1.00;99.90;;;;;;5070352;28;20211;-77
2022/04/03 00:36:22;;;;;;;5.03;2.20;;;1.00;99.90;;;;;;5071086;28;20259;-77
2022/04/03 00:38:49;;;;;;;4.10;2.27;;;1.00;99.90;;;;;;5069956;28;20208;-77
2022/04/03 00:41:16;;;;;;;4.20;2.60;;;1.00;99.90;;;;;;5070616;28;20252;-77
2022/04/03 00:43:44;;;;;;;4.53;2.57;;;1.00;99.90;;;;;;5071758;28;20204;-77
2022/04/03 00:46:12;;;;;;;5.20;2.50;;;1.00;99.90;;;;;;5071080;28;20267;-77
2022/04/03 00:48:39;;;;;;;3.37;2.40;;;1.00;99.90;;;;;;5062586;28;20832;-78
2022/04/03 00:51:05;;;;;;;5.67;2.13;;;1.00;99.90;;;;;;5072210;28;20212;-78
2022/04/03 00:53:30;;;;;;;5.33;2.87;;;1.00;99.90;;;;;;5071537;28;20711;-78
2022/04/03 00:55:56;;;;;;;3.83;2.30;;;1.00;99.90;;;;;;5070191;28;20247;-78
2022/04/03 00:58:22;;;;;;;4.53;2.30;;;1.00;99.90;;;;;;5070708;28;20223;-76
2022/04/03 01:00:47;;;;;;;6.50;3.53;;;1.00;99.90;;;;;;5070054;28;20197;-77
2022/04/03 01:03:13;;;;;;;7.53;2.87;;;1.00;99.90;;;;;;5072128;28;20637;-78
2022/04/03 01:05:39;;;;;;;5.77;3.20;;;1.00;99.90;;;;;;5071238;28;20235;-78
2022/04/03 01:08:05;;;;;;;5.77;3.20;;;0.90;99.90;;;;;;5070520;28;20251;-77
2022/04/03 01:10:30;;;;;;;5.00;3.17;;;0.90;99.90;;;;;;5069995;28;20299;-78
2022/04/03 01:12:56;;;;;;;8.20;3.80;;;0.90;99.90;;;;;;5070036;28;20341;-78
2022/04/03 01:15:21;;;;;;;6.43;3.47;;;0.70;99.90;;;;;;5071473;28;20185;-77
2022/04/03 01:17:47;;;;;;;5.93;2.80;;;0.70;99.90;;;;;;5067082;28;20227;-77
2022/04/03 01:20:13;;;;;;;4.57;3.40;;;0.80;99.90;;;;;;5064913;28;20206;-78
2022/04/03 01:22:39;;;;;;;6.67;2.70;;;0.80;99.90;;;;;;5069683;28;20665;-77
2022/04/03 01:25:05;;;;;;;3.57;2.83;;;0.80;99.90;;;;;;5071129;28;20205;-77
2022/04/03 01:27:30;;;;;;;4.93;3.10;;;0.70;99.90;;;;;;5069745;28;20197;-77
2022/04/03 01:29:57;;;;;;;4.67;2.53;;;0.70;99.90;;;;;;5069071;28;20290;-78
2022/04/03 01:32:23;;;;;;;5.00;3.03;;;0.70;99.90;;;;;;5070883;28;20244;-77
2022/04/03 01:34:48;;;;;;;7.50;3.07;;;0.70;99.90;;;;;;5070804;28;20221;-77
2022/04/03 01:37:14;;;;;;;4.50;2.67;;;0.60;99.90;;;;;;5069444;28;20700;-78
2022/04/03 01:39:40;;;;;;;3.23;2.53;;;0.60;99.90;;;;;;5070081;28;20193;-77
2022/04/03 01:42:05;;;;;;;3.93;2.50;;;0.70;99.90;;;;;;5071257;28;20182;-77
2022/04/03 01:44:31;;;;;;;6.50;2.67;;;0.70;99.90;;;;;;5069399;28;20214;-77
2022/04/03 01:46:57;;;;;;;3.73;2.47;;;0.60;99.90;;;;;;5070866;28;20753;-77
2022/04/03 01:49:22;;;;;;;7.40;3.03;;;0.60;99.90;;;;;;5061735;28;20241;-76
2022/04/03 01:51:48;;;;;;;6.50;2.57;;;0.60;99.90;;;;;;5070847;28;20185;-77
2022/04/03 01:54:14;;;;;;;3.83;2.53;;;0.60;99.90;;;;;;5071381;28;20218;-78
2022/04/03 01:56:40;;;;;;;6.20;3.03;;;0.60;99.90;;;;;;5070544;28;20213;-78
2022/04/03 01:59:06;;;;;;;4.17;2.57;;;0.60;99.90;;;;;;5068333;28;20214;-77
2022/04/03 02:01:33;;;;;;;4.30;2.47;;;0.70;99.90;;;;;;5070581;28;20211;-78
2022/04/03 02:04:00;;;;;;;5.03;2.90;;;0.80;99.90;;;;;;5070702;28;20219;-77
2022/04/03 02:06:26;;;;;;;5.13;2.67;;;0.70;99.90;;;;;;5069681;28;20361;-77
2022/04/03 02:08:52;;;;;;;4.70;2.87;;;0.80;99.90;;;;;;5069869;28;20651;-77
2022/04/03 02:11:17;;;;;;;4.80;2.63;;;0.90;99.90;;;;;;5070637;28;20291;-78
2022/04/03 02:13:43;;;;;;;4.83;2.70;;;0.90;99.90;;;;;;5070536;28;20294;-77
2022/04/03 02:16:12;;;;;;;4.57;3.00;;;1.00;99.90;;;;;;5069188;28;20214;-78
2022/04/03 02:18:38;;;;;;;5.90;3.20;;;1.00;99.90;;;;;;5061385;28;20685;-77
2022/04/03 02:21:04;;;;;;;5.53;2.83;;;1.00;99.90;;;;;;5071153;28;20175;-78
2022/04/03 02:23:29;;;;;;;5.83;3.10;;;1.00;99.90;;;;;;5070414;28;20199;-77
2022/04/03 02:25:55;;;;;;;5.83;3.03;;;1.10;99.90;;;;;;5070419;28;20221;-78
2022/04/03 02:28:23;;;;;;;3.77;2.63;;;1.20;99.90;;;;;;5079430;22;20231;-74
2022/04/03 02:30:49;;;;;;;6.83;2.87;;;1.20;99.90;;;;;;5063744;28;20664;-74
2022/04/03 02:33:15;;;;;;;4.33;2.90;;;1.20;99.90;;;;;;5079462;28;20200;-73
2022/04/03 02:35:40;;;;;;;3.47;2.33;;;1.20;99.90;;;;;;5052466;28;20588;-73
2022/04/03 02:38:07;;;;;;;7.23;3.17;;;1.20;99.90;;;;;;5069544;28;20220;-73
2022/04/03 02:40:33;;;;;;;4.97;2.73;;;1.30;99.90;;;;;;5070007;28;20695;-73
2022/04/03 02:42:58;;;;;;;4.10;2.70;;;1.30;99.90;;;;;;5068414;28;20281;-74
2022/04/03 02:45:24;;;;;;;4.40;2.57;;;1.40;99.90;;;;;;5052509;28;20217;-73
2022/04/03 02:47:54;;;;;;;5.10;2.97;;;1.40;99.90;;;;;;5051757;28;20687;-73
2022/04/03 02:50:22;;;;;;;5.97;3.23;;;1.40;99.90;;;;;;5051879;28;20201;-73
2022/04/03 02:52:51;;;;;;;4.77;2.97;;;1.30;99.90;;;;;;5062101;28;20208;-73
2022/04/03 02:55:18;;;;;;;6.77;2.90;;;1.20;99.90;;;;;;5051761;28;20220;-73
2022/04/03 02:57:44;;;;;;;4.50;2.17;;;1.30;99.90;;;;;;5069404;28;20619;-73
2022/04/03 03:00:17;;;;;;;4.87;2.33;;;1.20;99.90;;;;;;5074072;28;20164;-73
2022/04/03 03:02:43;;;;;;;4.37;2.67;;;1.30;99.90;;;;;;5069371;28;20238;-73
2022/04/03 03:05:09;;;;;;;4.70;2.47;;;1.30;99.90;;;;;;5052436;28;20228;-73
2022/04/03 03:07:39;;;;;;;5.40;2.30;;;1.30;99.90;;;;;;5051998;28;20214;-73
2022/04/03 03:10:06;;;;;;;4.87;2.27;;;1.30;99.90;;;;;;5070612;28;20210;-73
2022/04/03 03:12:32;;;;;;;2.97;2.30;;;1.30;99.90;;;;;;5073751;28;20175;-74
2022/04/03 03:14:57;;;;;;;3.87;2.40;;;1.40;99.90;;;;;;5073552;28;20210;-74
2022/04/03 03:17:23;;;;;;;4.77;2.17;;;1.30;99.90;;;;;;5055063;28;20230;-73
2022/04/03 03:19:49;;;;;;;4.17;2.57;;;1.40;99.90;;;;;;5072726;28;20275;-74
2022/04/03 03:22:14;;;;;;;6.90;2.90;;;1.40;99.90;;;;;;5055432;28;20690;-74
2022/04/03 03:24:40;;;;;;;4.23;2.47;;;1.40;99.90;;;;;;5055257;28;20279;-75
2022/04/03 03:27:06;;;;;;;3.60;2.47;;;1.40;99.90;;;;;;5073689;28;20230;-74
2022/04/03 03:29:31;;;;;;;3.60;2.27;;;1.40;99.90;;;;;;5054634;28;20222;-74
2022/04/03 03:31:57;;;;;;;4.00;2.10;;;1.40;99.90;;;;;;5076457;28;20242;-74
2022/04/03 03:34:22;;;;;;;6.70;2.80;;;1.40;99.90;;;;;;5072905;28;20214;-73
2022/04/03 03:36:48;;;;;;;6.50;3.33;;;1.40;99.90;;;;;;5055176;28;20200;-73
2022/04/03 03:39:14;;;;;;;7.13;2.50;;;1.40;99.90;;;;;;5073180;28;20193;-73
2022/04/03 03:41:40;;;;;;;6.57;2.17;;;1.40;99.90;;;;;;5072996;28;20220;-74
2022/04/03 03:44:10;;;;;;;6.00;2.80;;;1.40;99.90;;;;;;5072970;28;20199;-73
2022/04/03 03:46:37;;;;;;;4.17;2.33;;;1.40;99.90;;;;;;5072748;28;20599;-73
2022/04/03 03:49:02;;;;;;;4.30;2.33;;;1.40;99.90;;;;;;5054151;28;20244;-73
2022/04/03 03:51:28;;;;;;;4.53;2.87;;;1.40;99.90;;;;;;5073244;28;20260;-73
2022/04/03 03:53:53;;;;;;;4.67;2.73;;;1.40;99.90;;;;;;5072888;28;20311;-73
2022/04/03 03:56:19;;;;;;;3.57;2.60;;;1.40;99.90;;;;;;5072732;28;20694;-73
2022/04/03 03:58:45;;;;;;;3.23;2.67;;;1.40;99.90;;;;;;5053956;28;20720;-73
2022/04/03 04:01:12;;;;;;;3.77;2.47;;;1.30;99.90;;;;;;5076469;28;20224;-73
2022/04/03 04:03:37;;;;;;;9.00;3.80;;;1.40;99.90;;;;;;5072473;28;20555;-73
2022/04/03 04:06:03;;;;;;;6.23;2.93;;;1.40;99.90;;;;;;5073156;28;20182;-73
2022/04/03 04:08:28;;;;;;;4.60;3.17;;;1.40;99.90;;;;;;5071875;28;20638;-74
2022/04/03 04:10:54;;;;;;;7.77;3.40;;;1.40;99.90;;;;;;5072701;28;20217;-73
2022/04/03 04:13:19;;;;;;;4.63;2.90;;;1.40;99.90;;;;;;5072425;28;20218;-73
2022/04/03 04:15:45;;;;;;;11.67;3.30;;;1.30;99.90;;;;;;5072243;28;20181;-73
2022/04/03 04:18:10;;;;;;;4.73;3.47;;;1.30;99.90;;;;;;5071987;28;20214;-73
2022/04/03 04:20:37;;;;;;;6.03;3.43;;;1.30;99.90;;;;;;5071891;28;20213;-73
2022/04/03 04:23:03;;;;;;;5.47;3.07;;;1.30;99.90;;;;;;5072216;28;20225;-73
2022/04/03 04:25:28;;;;;;;5.83;3.33;;;1.30;99.90;;;;;;5054194;28;20583;-73
2022/04/03 04:27:54;;;;;;;5.33;2.73;;;1.30;99.90;;;;;;5071551;28;20182;-73
2022/04/03 04:30:19;;;;;;;5.13;2.73;;;1.30;99.90;;;;;;5051965;28;20192;-73
2022/04/03 04:32:45;;;;;;;5.37;3.10;;;1.30;99.90;;;;;;5071981;28;20208;-73
2022/04/03 04:35:11;;;;;;;2.83;2.47;;;1.40;99.90;;;;;;5072043;28;20242;-73
2022/04/03 04:37:38;;;;;;;4.93;3.07;;;1.40;99.90;;;;;;5053653;28;20312;-73
2022/04/03 04:40:05;;;;;;;3.87;2.37;;;1.30;99.90;;;;;;5071469;28;20301;-73
2022/04/03 04:42:31;;;;;;;7.87;3.03;;;1.40;99.90;;;;;;5054367;28;20207;-73
2022/04/03 04:44:56;;;;;;;6.33;2.83;;;1.40;99.90;;;;;;5070876;28;20235;-73
2022/04/03 04:47:22;;;;;;;5.50;3.27;;;1.30;99.90;;;;;;5071240;28;20347;-73
2022/04/03 04:49:48;;;;;;;9.73;3.23;;;1.30;99.90;;;;;;5092859;28;20304;-74
2022/04/03 04:52:13;;;;;;;4.27;2.60;;;1.40;99.90;;;;;;5092900;28;20261;-73
2022/04/03 04:54:39;;;;;;;4.47;2.60;;;1.40;99.90;;;;;;5092300;28;20222;-74
2022/04/03 04:57:04;;;;;;;3.57;2.50;;;1.40;99.90;;;;;;5092394;28;20201;-74
2022/04/03 04:59:30;;;;;;;5.07;2.80;;;1.50;99.90;;;;;;5072875;28;20214;-73
2022/04/03 05:01:56;;;;;;;8.17;2.80;;;1.40;99.90;;;;;;5073790;28;20558;-74
2022/04/03 05:04:23;;;;;;;6.87;3.07;;;1.50;99.90;;;;;;5091672;28;20196;-74
2022/04/03 05:06:49;;;;;;;4.63;3.40;;;1.50;99.90;;;;;;5091909;28;20180;-74
2022/04/03 05:09:15;;;;;;;6.73;2.80;;;1.50;99.90;;;;;;5091635;28;20197;-73
2022/04/03 05:11:41;;;;;;;5.37;3.13;;;1.50;99.90;;;;;;5091689;28;20305;-74
2022/04/03 05:14:06;;;;;;;6.30;3.53;;;1.50;99.90;;;;;;5091961;28;20212;-74
2022/04/03 05:16:32;;;;;;;5.67;3.43;;;1.50;99.90;;;;;;5084608;28;20206;-73
2022/04/03 05:18:58;;;;;;;4.20;2.63;;;1.50;99.90;;;;;;5090778;28;20338;-74
2022/04/03 05:21:23;;;;;;;6.37;3.10;;;1.50;99.90;;;;;;5073766;28;20652;-74
2022/04/03 05:23:49;;;;;;;4.90;2.70;;;1.60;99.90;;;;;;5091470;28;20211;-74
2022/04/03 05:26:17;;;;;;;4.63;3.27;;;1.50;99.90;;;;;;5073319;28;20288;-74
2022/04/03 05:28:43;;;;;;;3.77;2.67;;;1.60;99.90;;;;;;5072266;28;20206;-74
2022/04/03 05:31:09;;;;;;;5.03;2.90;;;1.60;99.90;;;;;;5073196;28;20210;-74
2022/04/03 05:33:35;;;;;;;5.03;2.73;;;1.70;99.90;;;;;;5073098;28;20185;-73
2022/04/03 05:36:00;;;;;;;4.90;2.90;;;1.70;99.90;;;;;;5073157;28;20206;-75
2022/04/03 05:38:26;;;;;;;3.87;2.80;;;1.70;99.90;;;;;;5071945;28;20233;-75
2022/04/03 05:40:51;;;;;;;4.63;2.60;;;1.70;99.90;;;;;;5073391;28;20251;-73
2022/04/03 05:43:17;;;;;;;5.97;3.03;;;1.70;99.90;;;;;;5091377;28;20206;-75
2022/04/03 05:45:42;;;;;;;6.20;3.20;;;1.80;99.90;;;;;;5085866;28;20268;-73
2022/04/03 05:48:08;;;;;;;2.57;2.17;;;1.90;99.90;;;;;;5091029;28;20276;-73
2022/04/03 05:50:35;;;;;;;4.17;2.57;;;1.90;99.90;;;;;;5091231;28;20780;-74
2022/04/03 05:53:01;;;;;;;9.13;2.80;;;2.00;99.90;;;;;;5072924;28;20199;-74
2022/04/03 05:55:26;;;;;;;8.97;3.23;;;2.10;99.90;;;;;;5072903;28;20589;-74
2022/04/03 05:57:53;;;;;;;3.17;2.33;;;2.10;99.90;;;;;;5090597;28;20206;-74
2022/04/03 06:00:22;;;;;;;6.43;2.50;;;2.30;99.90;;;;;;5091167;28;20537;-74
2022/04/03 06:02:56;;;;;;;7.07;2.40;;;2.40;99.90;;;;;;5072777;28;20212;-74
2022/04/03 06:05:24;;;;;;;7.80;3.23;;;2.60;99.90;;;;;;5090696;28;20784;-74
2022/04/03 06:07:50;;;;;;;8.27;2.90;;;2.60;99.90;;;;;;5090742;28;20213;-74
2022/04/03 06:10:17;;;;;;;7.27;3.17;;;2.90;99.90;;;;;;5072286;28;20202;-74
2022/04/03 06:12:59;;;;;;;9.33;2.73;;;3.90;99.90;;;;;;5072732;28;20177;-74
2022/04/03 06:15:26;;;;;;;4.03;2.20;;;3.80;99.90;;;;;;5086021;28;20267;-74
2022/04/03 06:17:52;;;;;;;6.70;3.17;;;3.80;99.90;;;;;;5090414;28;20896;-74
2022/04/03 06:20:18;;;;;;;3.50;2.80;;;3.90;99.90;;;;;;5090450;28;20351;-74
2022/04/03 06:22:44;;;;;;;5.90;3.30;;;3.90;99.90;;;;;;5090756;28;20198;-74
2022/04/03 06:25:11;;;;;;;6.07;2.37;;;4.30;99.90;;;;;;5091003;28;20216;-74
2022/04/03 06:27:36;;;;;;;2.37;2.07;;;5.90;99.90;;;;;;5091195;28;20261;-74
2022/04/03 06:30:02;;;;;;;3.23;1.83;;;7.80;99.90;;;;;;5072121;28;20287;-75
2022/04/03 06:32:29;;;;;;;4.73;2.40;;;9.60;99.90;;;;;;5090683;28;20209;-74
2022/04/03 06:34:54;;;;;;;5.53;2.40;;;8.90;99.90;;;;;;5072489;28;20210;-74
2022/04/03 06:37:20;;;;;;;5.77;2.10;;;9.80;99.90;;;;;;5090635;28;20631;-74
2022/04/03 06:39:45;;;;;;;3.57;2.33;;;10.30;99.90;;;;;;5090147;28;20199;-74
2022/04/03 06:42:11;;;;;;;2.93;2.30;;;11.90;99.90;;;;;;5091133;28;20178;-74
2022/04/03 06:44:38;;;;;;;9.93;5.80;;;13.10;98.90;;;;;;5091136;28;20240;-74
2022/04/03 06:47:04;;;;;;;6.93;4.22;;;13.70;96.70;;;;;;5089111;28;20297;-74
2022/04/03 06:49:30;;;;;;;3.85;2.38;;;14.70;94.00;;;;;;5093337;28;20301;-74
2022/04/03 06:51:55;;;;;;;7.03;3.88;;;15.10;90.10;;;;;;5094767;28;20167;-74
2022/04/03 06:54:21;;;;;;;3.28;2.33;;;14.70;88.90;;;;;;5077233;28;20193;-74
2022/04/03 06:56:46;;;;;;;10.90;5.70;;;14.80;85.90;;;;;;5094969;28;20708;-74
2022/04/03 06:59:12;;;;;;;9.90;5.68;;;13.90;86.60;;;;;;5094679;28;20214;-74
2022/04/03 07:01:37;;;;;;;5.78;3.40;;;12.20;90.40;;;;;;5077209;28;20231;-74
2022/04/03 07:04:04;;;;;;;5.82;2.97;;;10.90;92.20;;;;;;5095204;28;20202;-74
2022/04/03 07:06:29;;;;;;;3.58;2.42;;;10.10;93.60;;;;;;5094453;28;20249;-74
2022/04/03 07:08:54;;;;;;;5.25;2.53;;;10.90;94.10;;;;;;5093798;28;20285;-74
2022/04/03 07:11:20;;;;;;;3.72;2.53;;;12.10;92.10;;;;;;5076451;28;20697;-74
2022/04/03 07:13:45;;;;;;;3.53;2.30;;;11.40;92.40;;;;;;5078016;28;20292;-74
2022/04/03 07:16:11;;;;;;;4.73;2.40;;;10.00;93.70;;;;;;5089280;28;20206;-74
2022/04/03 07:18:37;;;;;;;3.83;2.03;;;9.30;95.50;;;;;;5073797;28;20319;-74
2022/04/03 07:21:02;;;;;;;6.73;2.50;;;8.50;97.80;;;;;;5088465;28;20210;-74
2022/04/03 07:23:28;;;;;;;4.33;2.87;;;8.10;98.20;;;;;;5094214;28;20202;-74
2022/04/03 07:25:53;;;;;;;5.80;2.63;;;8.20;98.90;;;;;;5094104;28;20236;-74
2022/04/03 07:28:19;;;;;;;5.87;2.70;;;8.20;99.30;;;;;;5093717;28;20218;-74
2022/04/03 07:30:44;;;;;;;5.17;2.80;;;8.40;99.80;;;;;;5076449;28;20178;-74
2022/04/03 07:33:10;;;;;;;4.17;2.67;;;8.40;99.60;;;;;;5097616;28;20201;-73
2022/04/03 07:35:37;;;;;;;4.73;3.07;;;8.60;99.90;;;;;;5094550;28;20778;-74
2022/04/03 07:38:02;;;;;;;5.10;2.40;;;8.60;99.20;;;;;;5093838;28;20253;-73
2022/04/03 07:40:28;;;;;;;5.30;3.03;;;8.60;99.20;;;;;;5095598;28;20241;-75
2022/04/03 07:42:53;;;;;;;5.03;2.40;;;9.10;99.70;;;;;;5081442;28;20202;-74
2022/04/03 07:45:19;;;;;;;6.53;2.40;;;9.20;99.20;;;;;;5075052;28;20185;-74
2022/04/03 07:47:50;;;;;;;3.90;1.97;;;8.80;98.80;;;;;;5078162;28;20633;-73
2022/04/03 07:50:18;;;;;;;5.87;2.53;;;8.30;99.60;;;;;;5096313;28;20206;-73
2022/04/03 07:52:45;;;;;;;3.73;2.27;;;7.70;99.90;;;;;;5077476;28;20206;-74
2022/04/03 07:55:10;;;;;;;5.27;2.57;;;6.80;99.90;;;;;;5095919;28;20218;-73
2022/04/03 07:57:37;;;;;;;5.07;2.13;;;6.60;99.90;;;;;;5078221;28;20194;-74
2022/04/03 08:00:07;;;;;;;3.00;2.20;;;6.50;99.90;;;;;;5094798;28;20203;-73
2022/04/03 08:02:34;;;;;;;2.97;1.90;;;6.30;99.90;;;;;;5094592;28;20224;-74
2022/04/03 08:05:00;;;;;;;4.07;2.30;;;6.10;99.90;;;;;;5094813;28;20194;-74
2022/04/03 08:07:44;;;;;;;2.37;1.97;;;5.70;99.90;;;;;;5077339;28;20213;-74
2022/04/03 08:10:13;;;;;;;3.47;1.90;;;5.80;99.90;;;;;;5076596;28;20269;-73
2022/04/03 08:12:41;;;;;;;5.27;2.00;;;5.80;99.90;;;;;;5094931;28;20184;-73
2022/04/03 08:15:08;;;;;;;2.80;2.20;;;5.90;99.90;;;;;;5092184;28;20171;-73
2022/04/03 08:17:34;;;;;;;3.43;1.87;;;6.20;99.90;;;;;;5076988;28;20210;-73
2022/04/03 08:20:01;;;;;;;3.53;2.17;;;6.30;99.90;;;;;;5075853;28;20210;-75
2022/04/03 08:22:27;;;;;;;6.67;1.87;;;6.40;99.90;;;;;;5075875;28;20236;-72
2022/04/03 08:24:53;;;;;;;3.97;2.27;;;6.80;99.90;;;;;;5076820;28;20659;-72
2022/04/03 08:27:19;;;;;;;4.83;2.13;;;7.20;99.90;;;;;;5095655;28;20192;-74
2022/04/03 08:29:45;;;;;;;5.23;2.00;;;7.80;99.90;;;;;;5077330;22;20238;-77
2022/04/03 08:32:11;;;;;;;4.03;1.90;;;8.70;99.90;;;;;;5007587;28;20208;-78
2022/04/03 08:34:37;;;;;;;3.70;1.80;;;9.20;99.90;;;;;;5002747;28;20249;-78
2022/04/03 08:37:03;;;;;;;3.53;2.03;;;9.60;99.90;;;;;;4994555;28;20815;-77
2022/04/03 08:39:28;;;;;;;3.00;1.60;;;10.00;99.90;;;;;;5020545;28;20196;-78
2022/04/03 08:41:56;;;;;;;4.57;2.00;;;10.70;99.30;;;;;;5046345;28;20208;-78
2022/04/03 08:44:22;;;;;;;2.83;1.73;;;11.30;97.90;;;;;;5013985;28;20639;-78
2022/04/03 08:46:49;;;;;;;3.90;2.13;;;11.30;96.90;;;;;;5031562;28;20205;-77
2022/04/03 08:49:18;;;;;;;4.80;2.27;;;12.50;95.00;;;;;;5030786;28;20647;-77
2022/04/03 08:51:44;;;;;;;3.33;1.80;;;12.60;94.00;;;;;;5014037;28;20701;-77
2022/04/03 08:54:10;;;;;;;4.10;2.27;;;13.40;92.60;;;;;;5031489;28;20226;-76
2022/04/03 08:56:36;;;;;;;7.67;2.13;;;13.30;91.90;;;;;;5031857;28;20217;-78
2022/04/03 08:59:02;;;;;;;2.43;1.80;;;12.90;91.80;;;;;;5013506;28;20217;-78
2022/04/03 09:01:29;;;;;;;4.23;2.10;;;12.70;91.70;;;;;;5031411;28;20200;-79
2022/04/03 09:03:54;;;;;;;3.67;2.00;;;11.70;92.60;;;;;;5031484;28;20237;-78
2022/04/03 09:06:21;;;;;;;4.90;2.30;;;11.20;93.60;;;;;;5014232;28;20256;-78
2022/04/03 09:08:48;;;;;;;3.00;2.27;;;11.50;93.60;;;;;;5022257;28;20280;-78
2022/04/03 09:11:14;;;;;;;2.50;2.03;;;11.60;93.00;;;;;;5031679;28;20208;-78
2022/04/03 09:13:41;;;;;;;3.23;2.37;;;11.70;92.80;;;;;;5013921;28;20578;-78
2022/04/03 09:16:08;;;;;;;5.80;2.33;;;11.20;92.40;;;;;;5018580;28;20219;-78
2022/04/03 09:18:52;;;;;;;4.13;1.87;;;10.70;92.80;;;;;;5013185;28;20696;-78
2022/04/03 09:21:22;;;;;;;3.37;1.70;;;10.80;92.80;;;;;;5032237;28;20205;-78
2022/04/03 09:24:01;;;;;;;3.47;1.60;;;10.70;92.50;;;;;;5029803;28;20201;-78
2022/04/03 09:26:28;;;;;;;2.90;1.77;;;10.70;92.10;;;;;;5013750;28;20204;-78
2022/04/03 09:29:10;;;;;;;2.97;1.73;;;11.00;91.40;;;;;;5034014;28;20210;-78
2022/04/03 09:31:36;;;;;;;2.77;1.90;;;11.20;90.40;;;;;;5040933;28;20222;-77
2022/04/03 09:34:03;;;;;;;3.93;2.00;;;11.30;90.50;;;;;;5039852;28;20680;-76
2022/04/03 09:36:30;;;;;;;3.77;1.83;;;10.70;90.10;;;;;;5023508;28;20172;-77
2022/04/03 09:39:12;;;;;;;4.33;2.30;;;10.50;91.30;;;;;;5024272;28;20325;-76
2022/04/03 09:42:00;;;;;;;2.80;1.80;;;10.60;91.60;;;;;;5038527;28;20337;-77
2022/04/03 09:44:36;;;;;;;4.33;1.90;;;10.30;91.40;;;;;;5022188;28;20211;-77
2022/04/03 09:47:12;;;;;;;5.70;1.73;;;10.30;91.00;;;;;;5045318;28;20621;-77
2022/04/03 09:49:38;;;;;;;18.87;12.23;;;9.00;90.80;;;;;;5030168;28;20700;-77
2022/04/03 09:52:04;;;;;;;6.07;2.60;;;8.60;91.60;;;;;;5027813;28;20208;-78
2022/04/03 09:54:30;;;;;;;5.87;2.10;;;9.20;91.80;;;;;;5029458;28;20669;-77
2022/04/03 09:56:56;;;;;;;3.20;2.07;;;9.30;91.00;;;;;;5031277;28;20301;-77
2022/04/03 09:59:22;;;;;;;2.50;1.63;;;9.20;90.50;;;;;;5044509;28;20651;-76
2022/04/03 10:01:55;;;;;;;3.50;1.90;;;9.20;90.60;;;;;;5050831;28;20195;-78
2022/04/03 10:04:23;;;;;;;2.17;1.57;;;9.60;90.60;;;;;;5016165;28;20661;-76
2022/04/03 10:06:48;;;;;;;4.60;2.40;;;9.70;90.40;;;;;;5003046;28;20195;-77
2022/04/03 10:09:16;;;;;;;3.43;1.97;;;9.90;90.40;;;;;;5030570;28;20736;-77
2022/04/03 10:11:42;;;;;;;4.83;2.00;;;10.00;90.30;;;;;;5024770;28;20581;-78
2022/04/03 10:14:11;;;;;;;4.33;1.60;;;10.10;90.30;;;;;;5030703;28;20214;-78
2022/04/03 10:16:37;;;;;;;3.93;1.77;;;9.80;90.50;;;;;;5038551;28;20723;-78
2022/04/03 10:19:02;;;;;;;3.23;1.60;;;9.80;90.60;;;;;;5051088;28;20294;-77
2022/04/03 10:21:41;;;;;;;2.97;1.73;;;9.70;90.60;;;;;;5045650;28;20495;-76
2022/04/03 10:24:15;;;;;;;6.23;2.13;;;9.30;90.80;;;;;;5026519;28;20219;-78
2022/04/03 10:26:43;;;;;;;2.70;1.80;;;9.10;91.00;;;;;;5032208;28;20208;-77
2022/04/03 10:29:10;;;;;;;3.27;2.07;;;9.20;90.70;;;;;;5015869;28;20247;-78
2022/04/03 10:31:53;;;;;;;4.60;1.90;;;9.20;90.80;;;;;;5034368;28;20630;-78
2022/04/03 10:34:20;;;;;;;3.07;1.80;;;8.90;90.40;;;;;;5016656;28;20212;-77
2022/04/03 10:36:47;;;;;;;6.97;2.57;;;9.00;90.50;;;;;;5036336;28;20274;-76
2022/04/03 10:39:23;;;;;;;2.97;2.23;;;8.70;90.50;;;;;;5046794;28;20200;-75
2022/04/03 10:41:48;;;;;;;5.40;2.00;;;8.30;90.00;;;;;;5016376;28;20228;-77
2022/04/03 10:44:22;;;;;;;4.47;2.67;;;8.10;90.20;;;;;;5028409;28;20228;-77
2022/04/03 10:47:05;;;;;;;3.00;1.67;;;8.40;90.00;;;;;;5041093;28;20758;-76
2022/04/03 10:49:40;;;;;;;5.63;1.70;;;9.00;90.00;;;;;;5054329;28;20211;-79
2022/04/03 10:52:26;;;;;;;2.10;1.50;;;9.30;88.00;;;;;;5035956;28;20291;-77
2022/04/03 10:54:53;;;;;;;3.67;1.63;;;9.40;87.90;;;;;;5005951;28;20672;-77
2022/04/03 10:57:32;;;;;;;4.20;1.87;;;9.30;87.30;;;;;;5017033;28;20250;-78
2022/04/03 11:00:13;;;;;;;2.40;1.60;;;9.60;88.20;;;;;;5052633;28;20204;-78
2022/04/03 11:02:57;;;;;;;5.00;2.70;;;9.80;87.60;;;;;;5051177;28;20627;-78
2022/04/03 11:05:28;;;;;;;2.50;1.70;;;9.50;88.30;;;;;;5027921;28;20250;-78
2022/04/03 11:08:14;;;;;;;4.13;2.00;;;9.40;87.60;;;;;;5033431;28;20215;-78
2022/04/03 11:10:52;;;;;;;2.23;1.40;;;9.50;87.90;;;;;;5033352;28;20223;-78
2022/04/03 11:13:29;;;;;;;3.80;1.50;;;9.70;87.60;;;;;;5033818;28;20204;-78
2022/04/03 11:15:56;;;;;;;2.23;1.40;;;9.60;87.80;;;;;;5035964;28;20179;-78
2022/04/03 11:18:49;;;;;;;2.40;2.20;;;9.90;86.50;;;;;;5035595;28;20298;-78
2022/04/03 11:21:27;;;;;;;2.73;1.90;;;10.00;86.50;;;;;;5036160;28;20203;-78
2022/04/03 11:24:11;;;;;;;5.53;2.23;;;9.60;86.10;;;;;;5049151;28;20204;-78
2022/04/03 11:26:38;;;;;;;2.20;1.63;;;9.80;86.70;;;;;;5027464;28;20257;-78
2022/04/03 11:29:05;;;;;;;3.30;1.43;;;10.20;86.00;;;;;;5032524;28;20215;-78
2022/04/03 11:31:32;;;;;;;4.43;2.30;;;9.90;85.50;;;;;;5032212;28;20212;-78
2022/04/03 11:33:58;;;;;;;6.30;2.30;;;10.00;86.80;;;;;;5015400;28;20696;-79
2022/04/03 11:36:26;;;;;;;3.77;2.00;;;9.70;86.70;;;;;;5033712;28;20173;-78
2022/04/03 11:38:52;;;;;;;3.57;2.40;;;9.70;88.00;;;;;;5014571;28;20238;-78
2022/04/03 11:41:27;;;;;;;2.23;1.70;;;9.70;88.40;;;;;;5015335;28;20216;-76
2022/04/03 11:44:09;;;;;;;2.03;1.67;;;9.50;88.50;;;;;;5036408;28;20577;-78
2022/04/03 11:46:42;;;;;;;2.40;1.90;;;9.40;88.50;;;;;;5050443;28;20207;-79
2022/04/03 11:49:14;;;;;;;3.53;2.10;;;9.30;88.30;;;;;;5014758;28;20212;-78
2022/04/03 11:51:41;;;;;;;3.77;1.77;;;9.40;88.70;;;;;;5023225;28;20567;-77
2022/04/03 11:54:07;;;;;;;3.07;2.00;;;9.80;88.70;;;;;;5033513;28;20176;-77
2022/04/03 11:56:35;;;;;;;3.20;1.83;;;9.80;87.60;;;;;;5026927;28;20218;-78
2022/04/03 11:59:03;;;;;;;3.87;2.30;;;9.60;87.80;;;;;;5014811;28;20220;-78
2022/04/03 12:01:38;;;;;;;3.60;2.30;;;9.80;88.80;;;;;;5032961;28;20204;-78
2022/04/03 12:04:08;;;;;;;4.90;1.93;;;9.70;89.30;;;;;;5032865;28;20219;-78
2022/04/03 12:06:38;;;;;;;2.93;1.87;;;9.70;89.80;;;;;;5033538;28;20176;-78
2022/04/03 12:09:08;;;;;;;5.03;2.63;;;9.90;90.00;;;;;;5032207;28;20219;-78
2022/04/03 12:11:34;;;;;;;4.07;3.03;;;9.90;89.80;;;;;;5014599;28;20212;-78
2022/04/03 12:14:02;;;;;;;3.43;1.60;;;9.70;90.40;;;;;;5032515;28;20224;-78
2022/04/03 12:16:29;;;;;;;3.00;1.73;;;9.40;90.70;;;;;;5021462;28;20866;-78
2022/04/03 12:18:56;;;;;;;3.93;2.07;;;9.10;91.00;;;;;;5051546;28;20261;-78
2022/04/03 12:21:35;;;;;;;4.00;2.30;;;9.50;91.00;;;;;;5026546;28;20173;-76
2022/04/03 12:24:06;;;;;;;2.87;2.10;;;9.70;90.50;;;;;;5026332;28;20207;-77
2022/04/03 12:26:32;;;;;;;5.03;2.27;;;9.70;89.10;;;;;;5032276;28;20201;-77
2022/04/03 12:28:59;;;;;;;5.00;1.80;;;9.60;89.60;;;;;;5013573;28;20217;-77
2022/04/03 12:31:29;;;;;;;4.17;2.23;;;9.40;89.80;;;;;;5014349;28;20204;-78
2022/04/03 12:34:13;;;;;;;4.13;1.87;;;9.50;90.00;;;;;;5032216;28;20638;-78
2022/04/03 12:36:49;;;;;;;4.17;1.97;;;9.80;90.40;;;;;;5031944;28;20172;-78
2022/04/03 12:39:44;;;;;;;1.43;1.23;;;9.80;89.40;;;;;;5031850;28;20204;-78
2022/04/03 12:42:11;;;;;;;3.53;1.90;;;9.60;89.60;;;;;;5022216;28;20721;-78
2022/04/03 12:44:42;;;;;;;3.17;1.73;;;9.50;90.30;;;;;;5048134;28;20700;-78
2022/04/03 12:47:13;;;;;;;7.07;2.13;;;9.30;90.50;;;;;;5027138;28;20295;-78
2022/04/03 12:49:40;;;;;;;4.00;2.37;;;9.50;90.70;;;;;;5013142;28;20258;-78
2022/04/03 12:52:06;;;;;;;2.93;1.63;;;9.50;91.00;;;;;;5014130;28;20234;-78
2022/04/03 12:54:42;;;;;;;3.67;1.40;;;9.40;91.30;;;;;;5022569;28;20653;-78
2022/04/03 13:00:13;;;;;;;3.87;1.67;;;9.30;92.00;;;;;;5025333;28;20220;-77
2022/04/03 13:02:39;;;;;;;3.77;1.70;;;9.10;92.30;;;;;;5022617;28;20232;-77